Time;durP1;ratioP1;P1;durP2;ratioP2;P2;SDS_P1;SDS_P2;PMS_P1;PMS_P2;Temp;Humidity;BMP_temperature;BMP_pressure;BME280_temperature;BME280_humidity;BME280_pressure;Samples;Min_cycle;Max_cycle;Signal;HPM_P1;HPM_P2
2021/03/31 00:01:36;;;;;;;13.30;8.47;;;;;;;6.36;100.00;101985.81;5029867;28;20232;-69
2021/03/31 00:04:04;;;;;;;10.27;8.17;;;;;;;6.41;100.00;101991.38;5030214;28;20218;-68
2021/03/31 00:06:30;;;;;;;13.20;8.70;;;;;;;6.42;100.00;101991.16;5046336;28;20232;-67
2021/03/31 00:08:55;;;;;;;12.00;8.23;;;;;;;6.34;100.00;101986.03;5047130;28;20662;-68
2021/03/31 00:11:21;;;;;;;13.43;7.63;;;;;;;6.29;100.00;101979.59;5046443;28;20610;-68
2021/03/31 00:13:47;;;;;;;11.53;8.10;;;;;;;6.20;100.00;101978.16;5009450;28;20577;-68
2021/03/31 00:16:17;;;;;;;11.63;8.20;;;;;;;6.14;100.00;101971.75;5007667;28;20232;-68
2021/03/31 00:18:42;;;;;;;12.97;8.47;;;;;;;6.08;100.00;101976.31;5030102;28;20223;-67
2021/03/31 00:21:08;;;;;;;13.30;8.77;;;;;;;6.01;100.00;101964.75;5029581;28;20235;-67
2021/03/31 00:23:33;;;;;;;12.97;9.17;;;;;;;5.94;100.00;101964.75;5045964;28;20207;-68
2021/03/31 00:25:59;;;;;;;14.63;8.87;;;;;;;5.94;100.00;101958.53;5012642;28;20779;-68
2021/03/31 00:28:26;;;;;;;13.63;8.93;;;;;;;5.77;100.00;101960.84;5030099;28;20360;-68
2021/03/31 00:30:52;;;;;;;13.23;9.00;;;;;;;5.85;100.00;101960.63;5029286;28;20311;-68
2021/03/31 00:33:20;;;;;;;13.93;9.07;;;;;;;5.80;100.00;101957.72;4996256;28;20212;-67
2021/03/31 00:35:45;;;;;;;17.50;9.67;;;;;;;5.80;100.00;101948.81;5012218;28;20224;-68
2021/03/31 00:38:11;;;;;;;14.27;9.53;;;;;;;5.76;100.00;101950.25;5029920;28;20700;-67
2021/03/31 00:40:52;;;;;;;15.20;9.63;;;;;;;5.66;100.00;101951.69;5013049;28;20773;-67
2021/03/31 00:43:21;;;;;;;12.47;9.00;;;;;;;5.55;100.00;101945.06;5012699;28;20211;-67
2021/03/31 00:45:51;;;;;;;13.03;9.27;;;;;;;5.65;100.00;101944.66;5021776;28;20642;-68
2021/03/31 00:48:17;;;;;;;13.97;9.33;;;;;;;5.52;100.00;101952.75;5030095;28;20568;-68
2021/03/31 00:50:43;;;;;;;15.03;9.73;;;;;;;5.69;100.00;101941.31;5045596;28;20236;-68
2021/03/31 00:53:09;;;;;;;15.73;9.93;;;;;;;5.55;100.00;101937.00;5028281;28;20218;-72
2021/03/31 00:55:37;;;;;;;14.37;9.87;;;;;;;5.61;100.00;101932.63;5029593;28;20224;-67
2021/03/31 00:58:02;;;;;;;14.50;9.27;;;;;;;5.45;100.00;101936.56;5014641;28;20216;-67
2021/03/31 01:00:28;;;;;;;14.80;10.47;;;;;;;5.44;100.00;101928.72;5013919;28;20531;-67
2021/03/31 01:02:54;;;;;;;14.13;9.50;;;;;;;5.47;100.00;101928.28;5031457;28;20200;-68
2021/03/31 01:05:22;;;;;;;14.67;9.57;;;;;;;5.43;100.00;101921.66;5046704;28;20188;-67
2021/03/31 01:07:50;;;;;;;17.27;9.43;;;;;;;5.38;100.00;101925.00;5030858;28;20180;-68
2021/03/31 01:10:16;;;;;;;14.00;8.47;;;;;;;5.39;100.00;101918.56;5030430;28;20188;-68
2021/03/31 01:13:17;;;;;;;12.73;8.67;;;;;;;5.47;100.00;101912.13;5030136;28;20208;-67
2021/03/31 01:15:54;;;;;;;13.27;8.70;;;;;;;5.29;100.00;101920.00;5019430;28;20294;-67
2021/03/31 01:18:39;;;;;;;11.53;8.07;;;;;;;5.35;100.00;101919.19;5026765;28;20216;-68
2021/03/31 01:21:57;;;;;;;13.10;8.90;;;;;;;5.34;100.00;101908.63;5011064;28;20232;-67
2021/03/31 01:25:00;;;;;;;12.87;8.47;;;;;;;5.02;100.00;101902.19;4969991;28;20594;-68
2021/03/31 01:27:35;;;;;;;13.27;9.07;;;;;;;4.78;100.00;101909.19;5025446;28;20690;-70
2021/03/31 01:30:10;;;;;;;13.43;8.83;;;;;;;5.04;100.00;101904.69;5009791;28;20548;-69
2021/03/31 01:32:38;;;;;;;14.90;9.03;;;;;;;5.05;100.00;101896.41;5009477;28;20212;-69
2021/03/31 01:35:08;;;;;;;12.97;8.63;;;;;;;5.03;100.00;101897.63;5009943;28;20220;-68
2021/03/31 01:37:36;;;;;;;14.50;8.10;;;;;;;4.90;100.00;101896.78;5010348;28;20304;-69
2021/03/31 01:40:04;;;;;;;12.13;8.60;;;;;;;5.01;100.00;101900.50;5009177;28;20355;-69
2021/03/31 01:42:32;;;;;;;15.43;8.30;;;;;;;5.11;100.00;101900.94;5009039;28;20779;-68
2021/03/31 01:45:00;;;;;;;13.73;9.27;;;;;;;5.17;100.00;101902.81;5020612;28;20275;-68
2021/03/31 01:47:28;;;;;;;14.93;9.33;;;;;;;5.07;100.00;101902.41;5027791;28;20224;-68
2021/03/31 01:49:54;;;;;;;15.57;9.50;;;;;;;5.02;100.00;101896.81;5028919;28;20650;-68
2021/03/31 01:52:22;;;;;;;15.63;9.70;;;;;;;4.99;100.00;101905.28;5027569;28;20277;-67
2021/03/31 01:54:47;;;;;;;15.77;9.77;;;;;;;4.85;100.00;101900.06;5029298;28;20184;-68
2021/03/31 01:57:13;;;;;;;14.73;9.60;;;;;;;4.65;100.00;101906.47;5012416;28;20234;-68
2021/03/31 01:59:41;;;;;;;15.70;9.37;;;;;;;4.69;100.00;101905.03;5013192;28;20565;-70
2021/03/31 02:02:09;;;;;;;13.47;9.93;;;;;;;4.69;100.00;101907.75;5012095;28;20773;-68
2021/03/31 02:04:38;;;;;;;15.93;9.87;;;;;;;4.75;100.00;101896.97;5029370;28;20200;-68
2021/03/31 02:07:05;;;;;;;15.27;10.33;;;;;;;4.90;100.00;101888.72;5028579;28;20605;-69
2021/03/31 02:09:36;;;;;;;14.03;10.00;;;;;;;4.91;100.00;101895.75;5012528;28;20616;-68
2021/03/31 02:12:02;;;;;;;14.00;9.57;;;;;;;4.90;100.00;101897.59;5009196;28;20661;-68
2021/03/31 02:14:27;;;;;;;13.33;9.77;;;;;;;4.88;100.00;101888.91;5041257;28;20227;-69
2021/03/31 02:16:53;;;;;;;14.57;9.50;;;;;;;4.98;100.00;101890.19;4999376;28;20231;-68
2021/03/31 02:19:19;;;;;;;15.20;10.07;;;;;;;5.01;100.00;101891.63;5028328;28;20204;-69
2021/03/31 02:21:44;;;;;;;16.47;9.87;;;;;;;4.95;100.00;101891.63;4994087;28;20246;-69
2021/03/31 02:24:16;;;;;;;13.37;8.80;;;;;;;4.85;100.00;101885.81;5011776;28;20591;-69
2021/03/31 02:26:42;;;;;;;14.00;9.33;;;;;;;4.81;100.00;101887.25;5027959;28;20227;-68
2021/03/31 02:29:08;;;;;;;12.17;8.70;;;;;;;4.71;100.00;101884.13;5028378;28;20176;-68
2021/03/31 02:31:33;;;;;;;11.67;8.70;;;;;;;4.72;100.00;101889.28;5041179;28;20765;-68
2021/03/31 02:34:01;;;;;;;11.50;8.20;;;;;;;4.65;100.00;101884.94;5011342;28;20232;-68
2021/03/31 02:36:27;;;;;;;11.33;8.17;;;;;;;4.63;100.00;101887.00;5011779;28;20648;-69
2021/03/31 02:38:52;;;;;;;11.87;7.80;;;;;;;4.53;100.00;101877.69;5023265;28;20205;-68
2021/03/31 02:41:18;;;;;;;12.67;7.70;;;;;;;4.56;100.00;101880.81;4999416;28;20232;-69
2021/03/31 02:43:44;;;;;;;10.43;7.57;;;;;;;4.54;100.00;101874.78;5009758;28;20274;-68
2021/03/31 02:46:13;;;;;;;10.57;7.83;;;;;;;4.46;100.00;101872.28;5000879;28;20308;-68
2021/03/31 02:48:41;;;;;;;12.87;8.13;;;;;;;4.49;100.00;101877.25;5028258;28;20188;-69
2021/03/31 02:51:09;;;;;;;12.43;8.23;;;;;;;4.45;100.00;101876.03;5027451;28;20224;-68
2021/03/31 02:53:37;;;;;;;11.53;7.87;;;;;;;4.35;100.00;101872.03;5011560;28;20204;-68
2021/03/31 02:56:04;;;;;;;12.87;7.67;;;;;;;4.36;100.00;101871.84;5011041;28;20273;-68
2021/03/31 02:58:29;;;;;;;13.53;9.23;;;;;;;4.27;100.00;101867.69;5030789;28;20303;-69
2021/03/31 03:00:59;;;;;;;13.57;8.83;;;;;;;4.30;100.00;101867.28;5028169;28;20228;-68
2021/03/31 03:03:27;;;;;;;12.93;9.70;;;;;;;4.27;100.00;101862.31;5014255;28;20200;-68
2021/03/31 03:05:54;;;;;;;15.10;9.47;;;;;;;4.23;100.00;101866.44;5022772;28;20216;-69
2021/03/31 03:08:21;;;;;;;14.13;9.20;;;;;;;4.17;100.00;101862.88;5015415;28;20212;-69
2021/03/31 03:10:49;;;;;;;14.03;9.63;;;;;;;4.18;100.00;101861.88;5014637;28;20228;-67
2021/03/31 03:13:21;;;;;;;13.83;9.13;;;;;;;4.08;100.00;101850.66;5013800;28;20263;-67
2021/03/31 03:15:49;;;;;;;14.27;9.63;;;;;;;4.11;100.00;101852.94;5043207;28;20655;-67
2021/03/31 03:18:14;;;;;;;14.33;9.23;;;;;;;4.11;100.00;101845.69;5013470;28;20209;-70
2021/03/31 03:20:40;;;;;;;13.83;9.20;;;;;;;4.06;100.00;101847.34;5011073;28;20770;-67
2021/03/31 03:23:06;;;;;;;13.57;8.63;;;;;;;4.03;100.00;101839.66;5010588;28;20276;-68
2021/03/31 03:25:31;;;;;;;12.80;8.87;;;;;;;4.15;100.00;101830.00;5011164;28;20993;-68
2021/03/31 03:27:59;;;;;;;12.33;8.77;;;;;;;4.16;100.00;101826.25;5011560;28;20688;-69
2021/03/31 03:30:25;;;;;;;12.63;8.43;;;;;;;4.19;100.00;101828.56;5012009;28;20269;-67
2021/03/31 03:32:51;;;;;;;16.47;9.40;;;;;;;4.20;100.00;101834.56;5026068;28;20197;-68
2021/03/31 03:35:17;;;;;;;13.20;8.93;;;;;;;4.18;100.00;101829.59;5017215;28;20549;-67
2021/03/31 03:37:43;;;;;;;12.13;8.50;;;;;;;4.13;100.00;101821.31;5027566;28;20189;-67
2021/03/31 03:40:10;;;;;;;13.97;8.87;;;;;;;4.14;100.00;101822.94;5025778;28;20199;-67
2021/03/31 03:42:36;;;;;;;12.60;8.60;;;;;;;4.14;100.00;101822.94;5025607;28;20610;-67
2021/03/31 03:45:03;;;;;;;12.17;9.03;;;;;;;4.11;100.00;101815.31;5010605;28;20184;-68
2021/03/31 03:47:31;;;;;;;13.07;8.23;;;;;;;4.02;100.00;101821.91;5031492;28;20200;-68
2021/03/31 03:50:00;;;;;;;12.53;8.47;;;;;;;3.97;100.00;101810.91;5039299;28;20251;-67
2021/03/31 03:52:28;;;;;;;12.00;8.67;;;;;;;3.91;100.00;101814.41;5023510;28;20241;-67
2021/03/31 03:54:54;;;;;;;14.37;9.80;;;;;;;3.83;100.00;101804.66;5015131;28;20192;-67
2021/03/31 03:57:29;;;;;;;12.93;8.93;;;;;;;3.87;100.00;101810.47;5028976;28;20220;-67
2021/03/31 03:59:54;;;;;;;14.53;9.80;;;;;;;3.86;100.00;101806.13;5021088;28;20209;-68
2021/03/31 04:02:20;;;;;;;14.93;9.53;;;;;;;3.75;100.00;101801.31;5008500;28;20243;-69
2021/03/31 04:04:46;;;;;;;16.67;9.67;;;;;;;3.79;100.00;101801.75;5013147;28;20755;-68
2021/03/31 04:07:14;;;;;;;15.30;10.20;;;;;;;3.64;100.00;101804.56;5030985;28;20243;-68
2021/03/31 04:09:41;;;;;;;15.37;10.10;;;;;;;3.74;100.00;101805.06;5031620;28;20666;-68
2021/03/31 04:12:08;;;;;;;15.00;10.37;;;;;;;3.75;100.00;101797.81;5025869;28;20236;-68
2021/03/31 04:14:36;;;;;;;15.50;10.77;;;;;;;3.64;100.00;101793.81;5026898;28;20631;-69
2021/03/31 04:17:02;;;;;;;14.73;10.47;;;;;;;3.61;100.00;101798.78;4987456;28;20252;-69
2021/03/31 04:19:30;;;;;;;17.30;10.17;;;;;;;3.64;100.00;101801.88;5010191;28;20829;-68
2021/03/31 04:21:55;;;;;;;17.27;10.37;;;;;;;3.61;100.00;101796.94;5009269;28;20616;-68
2021/03/31 04:24:23;;;;;;;20.57;11.30;;;;;;;3.61;100.00;101788.06;5023301;28;20212;-68
2021/03/31 04:26:48;;;;;;;15.43;10.50;;;;;;;3.61;100.00;101794.25;4977556;28;20224;-68
2021/03/31 04:29:16;;;;;;;16.43;9.47;;;;;;;3.62;100.00;101789.69;4993814;28;20180;-68
2021/03/31 04:31:44;;;;;;;16.00;10.40;;;;;;;3.57;100.00;101782.25;4993593;28;20717;-68
2021/03/31 04:34:12;;;;;;;15.40;10.20;;;;;;;3.58;100.00;101783.06;5010077;28;20209;-68
2021/03/31 04:36:38;;;;;;;17.00;10.43;;;;;;;3.55;100.00;101784.31;5009661;28;20274;-67
2021/03/31 04:39:05;;;;;;;14.80;10.50;;;;;;;3.54;100.00;101793.38;4993889;28;20216;-68
2021/03/31 04:41:34;;;;;;;14.87;10.07;;;;;;;3.53;100.00;101786.34;4993746;28;21009;-67
2021/03/31 04:44:00;;;;;;;13.67;9.37;;;;;;;3.55;100.00;101787.00;5020853;28;20213;-67
2021/03/31 04:46:26;;;;;;;14.90;9.83;;;;;;;3.52;100.00;101783.88;5012354;28;20224;-69
2021/03/31 04:48:54;;;;;;;15.53;10.37;;;;;;;3.53;100.00;101772.91;5013607;28;20189;-69
2021/03/31 04:51:19;;;;;;;14.17;10.17;;;;;;;3.53;100.00;101775.59;5033403;28;20224;-68
2021/03/31 04:53:47;;;;;;;15.20;10.27;;;;;;;3.44;100.00;101771.44;5028595;28;20208;-68
2021/03/31 04:56:15;;;;;;;17.10;10.33;;;;;;;3.47;100.00;101771.03;5034130;28;20603;-68
2021/03/31 04:58:40;;;;;;;17.23;10.03;;;;;;;3.46;100.00;101764.03;5035647;28;20589;-69
2021/03/31 05:01:08;;;;;;;13.87;9.93;;;;;;;3.46;100.00;101768.53;4993070;28;20235;-69
2021/03/31 05:03:34;;;;;;;16.80;10.87;;;;;;;3.49;100.00;101763.59;5010688;28;20223;-69
2021/03/31 05:06:00;;;;;;;15.73;10.07;;;;;;;3.45;100.00;101767.72;5012484;28;20643;-67
2021/03/31 05:08:25;;;;;;;17.13;10.93;;;;;;;3.49;100.00;101760.91;5021076;28;20184;-68
2021/03/31 05:10:53;;;;;;;16.23;10.70;;;;;;;3.45;100.00;101769.59;5029439;28;21012;-69
2021/03/31 05:13:21;;;;;;;16.23;10.07;;;;;;;3.55;100.00;101761.97;5009986;28;20363;-69
2021/03/31 05:15:47;;;;;;;15.40;10.43;;;;;;;3.53;100.00;101762.16;5021783;28;20216;-68
2021/03/31 05:18:15;;;;;;;13.67;10.17;;;;;;;3.60;100.00;101759.53;5031012;28;20216;-67
2021/03/31 05:20:41;;;;;;;17.50;10.90;;;;;;;3.60;100.00;101752.28;5029436;28;20495;-67
2021/03/31 05:23:09;;;;;;;18.97;10.57;;;;;;;3.63;100.00;101762.66;5028616;28;20204;-67
2021/03/31 05:25:37;;;;;;;15.50;10.63;;;;;;;3.68;100.00;101754.81;5030798;28;20709;-67
2021/03/31 05:28:03;;;;;;;17.83;10.33;;;;;;;3.71;100.00;101757.09;4990938;28;20235;-70
2021/03/31 05:30:29;;;;;;;15.87;10.20;;;;;;;3.72;100.00;101753.38;5020418;28;20224;-69
2021/03/31 05:32:54;;;;;;;18.47;11.07;;;;;;;3.76;100.00;101743.88;5019780;28;20208;-69
2021/03/31 05:35:20;;;;;;;15.27;10.73;;;;;;;3.87;100.00;101756.75;5026588;28;20188;-68
2021/03/31 05:37:46;;;;;;;16.93;10.80;;;;;;;3.95;100.00;101740.41;5025386;28;20223;-68
2021/03/31 05:40:13;;;;;;;19.13;11.03;;;;;;;4.01;100.00;101747.66;4992751;28;20233;-69
2021/03/31 05:42:39;;;;;;;15.27;10.97;;;;;;;4.08;100.00;101743.13;5012107;28;20203;-69
2021/03/31 05:45:08;;;;;;;15.10;10.47;;;;;;;4.16;100.00;101745.63;5002899;28;20184;-68
2021/03/31 05:47:36;;;;;;;15.33;10.60;;;;;;;4.23;100.00;101742.75;5026665;28;20191;-69
2021/03/31 05:50:04;;;;;;;16.70;10.73;;;;;;;4.37;100.00;101743.59;5023122;28;20632;-69
2021/03/31 05:52:34;;;;;;;13.77;10.30;;;;;;;4.49;100.00;101747.34;5011406;28;20711;-69
2021/03/31 05:55:05;;;;;;;17.40;10.30;;;;;;;4.49;100.00;101741.97;5012443;28;20668;-68
2021/03/31 05:57:34;;;;;;;14.37;9.50;;;;;;;4.73;100.00;101742.97;5028598;28;20219;-68
2021/03/31 06:00:07;;;;;;;12.73;9.70;;;;;;;4.82;100.00;101743.59;4996808;28;20208;-68
2021/03/31 06:02:39;;;;;;;12.97;9.40;;;;;;;5.01;100.00;101755.16;5011998;28;20238;-68
2021/03/31 06:05:08;;;;;;;13.33;9.53;;;;;;;5.10;100.00;101753.88;5028337;28;20188;-68
2021/03/31 06:07:34;;;;;;;12.90;9.83;;;;;;;5.22;100.00;101746.00;5029930;28;20184;-68
2021/03/31 06:10:19;;;;;;;15.23;10.33;;;;;;;5.40;100.00;101744.28;5028826;28;20181;-67
2021/03/31 06:12:54;;;;;;;12.27;9.87;;;;;;;5.58;100.00;101741.72;5024459;28;20250;-69
2021/03/31 06:15:33;;;;;;;12.60;9.17;;;;;;;5.67;100.00;101740.44;5021071;28;20242;-68
2021/03/31 06:18:19;;;;;;;13.00;9.93;;;;;;;5.72;100.00;101737.94;5014232;28;20196;-68
2021/03/31 06:21:00;;;;;;;14.43;9.60;;;;;;;5.85;100.00;101739.56;5028905;28;20727;-69
2021/03/31 06:23:47;;;;;;;12.67;8.27;;;;;;;6.10;100.00;101734.22;5024352;28;20220;-69
2021/03/31 06:26:16;;;;;;;13.10;8.97;;;;;;;6.21;100.00;101729.00;5029766;28;20270;-68
2021/03/31 06:28:42;;;;;;;11.43;8.23;;;;;;;6.39;100.00;101737.13;5021367;28;20192;-69
2021/03/31 06:31:15;;;;;;;13.93;9.20;;;;;;;6.60;100.00;101724.94;5030427;28;20298;-69
2021/03/31 06:33:47;;;;;;;12.23;8.73;;;;;;;6.73;100.00;101726.69;5015354;28;20206;-69
2021/03/31 06:36:14;;;;;;;12.43;8.17;;;;;;;6.79;100.00;101723.91;5015671;28;20643;-68
2021/03/31 06:38:48;;;;;;;12.60;8.57;;;;;;;7.05;100.00;101723.66;5032712;28;20597;-68
2021/03/31 06:41:28;;;;;;;13.10;9.30;;;;;;;7.28;100.00;101723.84;5031853;28;20663;-69
2021/03/31 06:44:11;;;;;;;12.17;8.77;;;;;;;7.29;100.00;101721.75;5023963;28;20709;-69
2021/03/31 06:49:03;;;;;;;12.33;8.87;;;;;;;7.66;100.00;101722.56;5048940;28;20580;-69
2021/03/31 06:51:32;;;;;;;16.93;9.30;;;;;;;7.90;100.00;101722.44;5015829;28;20224;-69
2021/03/31 06:54:19;;;;;;;13.27;8.60;;;;;;;8.20;100.00;101726.81;5031542;28;20230;-69
2021/03/31 06:56:53;;;;;;;14.83;9.20;;;;;;;8.41;100.00;101719.00;5031203;28;20228;-70
2021/03/31 06:59:30;;;;;;;12.13;8.90;;;;;;;8.62;98.34;101710.31;4997416;28;20258;-69
2021/03/31 07:01:56;;;;;;;11.63;8.80;;;;;;;8.80;97.55;101712.91;5010682;28;20235;-69
2021/03/31 07:04:30;;;;;;;12.83;9.20;;;;;;;9.10;93.94;101718.00;5012387;28;20197;-67
2021/03/31 07:07:02;;;;;;;12.47;8.07;;;;;;;9.31;90.04;101706.53;4996348;28;20247;-68
2021/03/31 07:09:27;;;;;;;12.33;8.10;;;;;;;9.44;87.51;101707.06;4996199;28;20184;-69
2021/03/31 07:11:53;;;;;;;11.17;7.77;;;;;;;9.64;84.93;101702.91;5010794;28;20245;-68
2021/03/31 07:14:18;;;;;;;14.33;8.60;;;;;;;9.75;81.25;101702.03;5009392;28;20636;-69
2021/03/31 07:16:45;;;;;;;16.97;8.50;;;;;;;9.92;82.03;101702.94;5018843;28;20220;-68
2021/03/31 07:19:11;;;;;;;11.50;8.30;;;;;;;10.17;80.71;101698.00;5017014;28;20255;-68
2021/03/31 07:21:39;;;;;;;11.97;8.30;;;;;;;10.39;79.82;101689.72;5014065;28;20228;-68
2021/03/31 07:24:07;;;;;;;13.60;8.20;;;;;;;10.61;78.36;101689.81;5015091;28;20208;-68
2021/03/31 07:26:35;;;;;;;13.00;8.57;;;;;;;10.74;74.71;101695.72;5041662;28;20204;-68
2021/03/31 07:29:01;;;;;;;13.70;9.60;;;;;;;10.90;74.48;101689.47;5011287;28;20177;-72
2021/03/31 07:31:28;;;;;;;13.77;8.30;;;;;;;11.04;74.13;101685.31;5019141;28;20694;-70
2021/03/31 07:34:19;;;;;;;12.03;7.40;;;;;;;11.18;72.36;101680.06;5003923;28;20211;-68
2021/03/31 07:36:50;;;;;;;13.53;8.17;;;;;;;11.35;71.27;101678.13;5034042;28;20219;-68
2021/03/31 07:39:17;;;;;;;12.83;8.10;;;;;;;11.52;68.75;101678.09;5028583;28;20210;-68
2021/03/31 07:41:46;;;;;;;13.50;8.13;;;;;;;11.69;67.28;101674.25;5028536;28;20282;-67
2021/03/31 07:44:23;;;;;;;13.10;7.63;;;;;;;12.00;67.41;101666.97;5011134;28;20223;-68
2021/03/31 07:46:49;;;;;;;10.80;7.60;;;;;;;12.16;65.86;101674.22;5005392;28;20216;-68
2021/03/31 07:49:15;;;;;;;13.00;8.03;;;;;;;12.16;61.97;101679.69;5024316;28;20184;-68
2021/03/31 07:52:02;;;;;;;11.10;7.17;;;;;;;12.39;60.12;101677.44;5005349;28;20220;-68
2021/03/31 07:54:32;;;;;;;10.73;7.40;;;;;;;12.55;59.97;101670.22;4991559;28;20228;-69
2021/03/31 07:56:59;;;;;;;12.40;7.37;;;;;;;12.73;58.46;101671.44;5005320;28;20633;-68
2021/03/31 07:59:26;;;;;;;13.23;7.50;;;;;;;12.90;58.94;101672.16;4989010;28;20197;-68
2021/03/31 08:01:56;;;;;;;12.13;7.57;;;;;;;13.02;58.50;101670.06;5000102;28;20733;-68
2021/03/31 08:04:23;;;;;;;11.13;7.57;;;;;;;13.20;57.03;101669.59;5047833;28;20212;-68
2021/03/31 08:06:53;;;;;;;13.20;7.50;;;;;;;13.37;56.16;101664.78;5023622;28;20220;-69
2021/03/31 08:09:19;;;;;;;13.13;7.53;;;;;;;13.62;54.87;101658.34;4997148;28;20184;-68
2021/03/31 08:12:02;;;;;;;11.53;7.33;;;;;;;13.66;54.93;101659.47;5020852;28;20221;-68
2021/03/31 08:14:30;;;;;;;12.37;8.00;;;;;;;13.82;53.49;101658.41;5030217;28;20211;-68
2021/03/31 08:16:56;;;;;;;10.80;7.17;;;;;;;14.09;53.70;101656.31;5018159;28;20310;-69
2021/03/31 08:19:25;;;;;;;12.03;7.73;;;;;;;14.34;54.12;101658.00;5028856;28;20299;-68
2021/03/31 08:21:53;;;;;;;11.33;7.17;;;;;;;14.48;52.01;101648.16;5017650;28;20229;-70
2021/03/31 08:24:19;;;;;;;12.33;7.40;;;;;;;14.50;51.00;101653.34;5012343;28;20227;-70
2021/03/31 08:26:46;;;;;;;11.63;8.03;;;;;;;14.66;50.72;101650.34;4978974;28;20698;-70
2021/03/31 08:29:18;;;;;;;11.10;7.17;;;;;;;14.95;50.01;101644.00;5012146;28;20185;-69
2021/03/31 08:31:44;;;;;;;9.70;6.97;;;;;;;15.12;51.35;101650.78;4993598;28;20646;-69
2021/03/31 08:34:10;;;;;;;9.73;6.80;;;;;;;15.20;49.64;101642.06;4994499;28;20197;-69
2021/03/31 08:36:36;;;;;;;11.43;7.60;;;;;;;15.35;49.37;101644.75;4993951;28;20229;-69
2021/03/31 08:39:11;;;;;;;12.13;7.23;;;;;;;15.57;49.16;101637.00;5010702;28;20280;-69
2021/03/31 08:41:44;;;;;;;11.00;6.60;;;;;;;15.73;49.31;101625.66;4978356;28;20226;-69
2021/03/31 08:44:34;;;;;;;9.90;6.80;;;;;;;15.88;47.93;101629.16;4998057;28;20258;-69
2021/03/31 08:47:12;;;;;;;35.57;25.43;;;;;;;16.18;47.79;101623.50;5014062;28;20596;-70
2021/03/31 08:49:38;;;;;;;12.82;7.57;;;;;;;16.35;47.87;101629.38;5034321;28;20674;-69
2021/03/31 08:52:09;;;;;;;14.15;8.52;;;;;;;16.50;47.43;101621.03;5000953;28;20223;-70
2021/03/31 08:54:51;;;;;;;12.77;7.07;;;;;;;16.67;46.16;101628.56;5023196;28;20209;-69
2021/03/31 08:57:27;;;;;;;12.48;7.38;;;;;;;16.83;46.70;101616.34;5012710;28;20228;-69
2021/03/31 08:59:56;;;;;;;10.27;6.22;;;;;;;17.15;45.73;101611.84;5026036;28;20215;-69
2021/03/31 09:02:29;;;;;;;13.48;6.68;;;;;;;17.17;45.44;101606.09;5041988;28;20274;-69
2021/03/31 09:04:57;;;;;;;10.25;6.93;;;;;;;17.39;44.36;101598.97;5006479;28;20180;-69
2021/03/31 09:07:23;;;;;;;11.60;6.85;;;;;;;17.27;43.98;101603.22;5003468;28;20220;-69
2021/03/31 09:09:52;;;;;;;10.00;6.28;;;;;;;17.61;44.81;101591.78;5010826;28;20185;-69
2021/03/31 09:12:19;;;;;;;9.75;6.32;;;;;;;17.67;44.39;101585.09;5025402;28;20662;-68
2021/03/31 09:14:56;;;;;;;10.50;6.43;;;;;;;17.87;43.96;101590.31;5008369;28;20212;-69
2021/03/31 09:17:27;;;;;;;11.65;6.13;;;;;;;18.14;43.98;101588.56;5018765;28;20228;-69
2021/03/31 09:20:00;;;;;;;10.23;6.93;;;;;;;18.38;40.67;101583.75;5012833;28;20617;-70
2021/03/31 09:22:27;;;;;;;12.25;7.43;;;;;;;18.32;41.73;101577.53;5043924;28;20278;-69
2021/03/31 09:25:00;;;;;;;10.35;6.88;;;;;;;18.63;42.78;101579.44;4997294;28;20191;-70
2021/03/31 09:27:32;;;;;;;10.13;6.20;;;;;;;18.94;42.70;101581.34;5028507;28;20232;-69
2021/03/31 09:30:02;;;;;;;11.50;6.50;;;;;;;19.05;40.29;101570.97;4997117;28;20188;-69
2021/03/31 09:32:35;;;;;;;9.43;6.22;;;;;;;19.19;39.23;101572.59;5027466;28;20224;-69
2021/03/31 09:35:08;;;;;;;10.35;6.53;;;;;;;19.71;37.05;101562.63;4997394;28;20200;-70
2021/03/31 09:37:42;;;;;;;10.38;5.78;;;;;;;19.56;36.15;101572.34;5011927;28;20291;-69
2021/03/31 09:40:08;;;;;;;8.23;6.15;;;;;;;19.65;35.50;101565.00;5029325;28;20272;-69
2021/03/31 09:42:35;;;;;;;9.57;7.03;;;;;;;20.02;35.55;101560.84;5023321;28;20659;-70
2021/03/31 09:45:02;;;;;;;10.30;6.47;;;;;;;20.27;34.33;101565.72;5028738;28;20658;-69
2021/03/31 09:47:32;;;;;;;9.68;6.60;;;;;;;19.86;33.49;101556.78;5012271;28;20686;-69
2021/03/31 09:50:00;;;;;;;9.43;5.82;;;;;;;20.53;32.83;101568.34;5044953;28;20177;-70
2021/03/31 09:52:29;;;;;;;9.38;6.22;;;;;;;20.56;33.56;101556.66;5027570;28;20220;-70
2021/03/31 09:54:55;;;;;;;10.68;6.20;;;;;;;20.60;32.38;101554.91;5045155;28;20181;-71
2021/03/31 09:57:27;;;;;;;9.65;5.97;;;;;;;20.69;31.83;101555.78;5011547;28;20227;-71
2021/03/31 09:59:55;;;;;;;12.48;7.25;;;;;;;20.69;31.46;101555.78;5012285;28;20693;-69
2021/03/31 10:02:21;;;;;;;9.65;6.85;;;;;;;20.93;31.73;101550.69;5027245;28;20224;-69
2021/03/31 10:04:47;;;;;;;9.80;7.00;;;;;;;20.60;31.78;101552.16;5028577;28;20697;-69
2021/03/31 10:07:16;;;;;;;10.35;7.22;;;;;;;20.52;31.69;101550.13;5031051;28;20219;-69
2021/03/31 10:09:42;;;;;;;10.60;6.97;;;;;;;20.82;31.39;101548.53;5033806;28;20180;-69
2021/03/31 10:12:11;;;;;;;11.45;6.57;;;;;;;20.86;33.11;101542.09;5028279;28;20816;-70
2021/03/31 10:14:48;;;;;;;10.52;7.20;;;;;;;21.15;31.93;101536.81;4998605;28;20213;-68
2021/03/31 10:17:18;;;;;;;9.98;7.18;;;;;;;21.15;33.06;101536.81;5000245;28;20269;-70
2021/03/31 10:19:43;;;;;;;10.30;7.13;;;;;;;21.31;32.41;101525.81;5032168;28;20299;-68
2021/03/31 10:22:09;;;;;;;10.77;8.05;;;;;;;21.50;32.00;101523.63;5047657;28;20220;-69
2021/03/31 10:24:47;;;;;;;10.32;7.25;;;;;;;21.69;31.21;101533.22;5016116;28;20226;-68
2021/03/31 10:27:17;;;;;;;12.45;7.50;;;;;;;21.78;32.42;101525.75;5048328;28;20232;-69
2021/03/31 10:29:47;;;;;;;10.63;6.95;;;;;;;21.98;30.93;101521.50;5033579;28;20184;-69
2021/03/31 10:32:16;;;;;;;12.45;8.25;;;;;;;21.68;31.02;101520.53;5030936;28;20223;-69
2021/03/31 10:34:50;;;;;;;12.55;7.88;;;;;;;21.92;30.69;101506.19;5015843;28;20755;-69
2021/03/31 10:37:36;;;;;;;12.23;7.53;;;;;;;22.08;30.58;101500.66;5047372;28;20280;-69
2021/03/31 10:54:09;;;;;;;14.73;9.25;;;;;;;22.64;29.13;101501.22;5031098;28;20208;-69
2021/03/31 10:56:38;;;;;;;12.90;8.93;;;;;;;22.85;28.43;101491.81;5031579;28;20223;-69
2021/03/31 10:59:04;;;;;;;12.18;8.68;;;;;;;22.93;28.66;101498.50;5032129;28;20755;-71
2021/03/31 11:01:32;;;;;;;12.98;8.43;;;;;;;22.75;29.21;101485.06;5031528;28;20294;-69
2021/03/31 11:04:00;;;;;;;14.57;9.05;;;;;;;22.77;29.18;101477.22;5030824;28;20254;-69
2021/03/31 11:06:26;;;;;;;11.77;9.13;;;;;;;22.93;28.55;101468.84;5030809;28;20217;-69
2021/03/31 11:08:51;;;;;;;11.45;8.75;;;;;;;23.28;27.79;101467.50;5031990;28;20203;-69
2021/03/31 11:11:17;;;;;;;13.65;10.02;;;;;;;23.43;26.77;101466.91;5030895;28;20232;-69
2021/03/31 11:13:43;;;;;;;17.08;9.27;;;;;;;22.96;27.49;101468.16;5039072;28;20307;-70
2021/03/31 11:16:09;;;;;;;12.48;9.05;;;;;;;23.29;27.76;101469.09;5016609;28;20237;-69
2021/03/31 11:26:13;;;;;;;13.98;9.10;;;;;;;23.59;25.49;101452.91;5045119;28;20224;-69
2021/03/31 11:28:43;;;;;;;15.57;10.18;;;;;;;23.45;25.99;101457.06;5048129;28;20242;-70
2021/03/31 11:31:09;;;;;;;13.68;9.15;;;;;;;23.74;25.23;101449.53;5014973;28;20239;-70
2021/03/31 11:33:35;;;;;;;12.23;8.98;;;;;;;23.74;24.83;101441.19;5046901;28;20208;-69
2021/03/31 11:36:00;;;;;;;12.35;8.93;;;;;;;23.87;26.86;101445.66;5030694;28;20274;-70
2021/03/31 11:38:29;;;;;;;13.65;8.43;;;;;;;23.88;25.45;101438.91;5031318;28;20208;-69
2021/03/31 11:40:54;;;;;;;11.35;8.02;;;;;;;24.05;24.07;101427.66;5046816;28;20739;-69
2021/03/31 11:43:20;;;;;;;12.77;9.40;;;;;;;24.22;23.80;101430.25;5025610;28;20228;-68
2021/03/31 11:45:48;;;;;;;15.98;9.23;;;;;;;23.93;25.14;101427.63;5019294;28;20217;-70
2021/03/31 11:48:15;;;;;;;11.05;7.72;;;;;;;24.36;24.45;101421.28;5013286;28;20188;-69
2021/03/31 11:50:41;;;;;;;9.48;6.25;;;;;;;24.68;22.33;101416.81;5046908;28;20220;-69